createdAt,value
2017-11-04T00:01:11.995Z,21.07
2017-11-04T00:03:40.387Z,20.53
2017-11-04T00:06:09.510Z,20.33
2017-11-04T00:08:37.868Z,20.63
2017-11-04T00:11:06.919Z,20.47
2017-11-04T00:13:35.274Z,19.07
2017-11-04T00:16:16.110Z,18.87
2017-11-04T00:18:45.226Z,18.37
2017-11-04T00:21:14.587Z,19.00
2017-11-04T00:23:43.078Z,18.97
2017-11-04T00:26:13.188Z,19.67
2017-11-04T00:28:41.539Z,19.13
2017-11-04T00:31:09.923Z,17.80
2017-11-04T00:33:38.280Z,18.53
2017-11-04T00:36:07.619Z,17.77
2017-11-04T00:38:36.114Z,17.67
2017-11-04T00:41:05.237Z,17.43
2017-11-04T00:43:33.590Z,17.30
2017-11-04T00:46:02.750Z,17.50
2017-11-04T00:48:32.434Z,17.07
2017-11-04T00:51:00.788Z,17.10
2017-11-04T00:53:29.184Z,16.50
2017-11-04T00:55:57.539Z,16.63
2017-11-04T00:58:25.890Z,16.60
2017-11-04T01:00:53.963Z,16.27
2017-11-04T01:03:22.317Z,17.37
2017-11-04T01:05:50.933Z,17.63
2017-11-04T01:08:20.091Z,17.10
2017-11-04T01:10:48.490Z,16.73
2017-11-04T01:13:16.848Z,16.60
2017-11-04T01:15:45.219Z,17.83
2017-11-04T01:18:13.580Z,16.80
2017-11-04T01:20:41.956Z,17.13
2017-11-04T01:23:10.351Z,17.30
2017-11-04T01:25:38.706Z,17.67
2017-11-04T01:28:07.058Z,16.50
2017-11-04T01:30:36.228Z,15.90
2017-11-04T01:33:04.583Z,15.77
2017-11-04T01:35:32.939Z,17.30
2017-11-04T01:38:01.338Z,18.20
2017-11-04T01:40:41.891Z,18.00
2017-11-04T01:43:09.951Z,16.87
2017-11-04T01:45:38.370Z,17.47
2017-11-04T01:48:06.030Z,16.40
2017-11-04T01:50:33.715Z,16.80
2017-11-04T01:53:02.863Z,15.77
2017-11-04T01:55:32.123Z,15.93
2017-11-04T01:58:00.485Z,14.70
2017-11-04T02:00:29.120Z,15.10
2017-11-04T02:02:59.019Z,13.93
2017-11-04T02:05:27.026Z,13.30
2017-11-04T02:07:55.253Z,13.10
2017-11-04T02:10:23.660Z,13.27
2017-11-04T02:12:53.035Z,13.87
2017-11-04T02:15:24.871Z,12.97
2017-11-04T02:17:54.094Z,13.47
2017-11-04T02:20:21.755Z,14.10
2017-11-04T02:22:49.443Z,14.00
2017-11-04T02:25:17.455Z,13.93
2017-11-04T02:27:46.588Z,13.77
2017-11-04T02:30:15.230Z,14.03
2017-11-04T02:32:44.351Z,14.07
2017-11-04T02:35:12.358Z,13.20
2017-11-04T02:37:40.746Z,13.37
2017-11-04T02:40:09.104Z,12.43
2017-11-04T02:42:37.457Z,11.37
2017-11-04T02:45:05.963Z,12.27
2017-11-04T02:47:34.316Z,12.17
2017-11-04T02:50:02.675Z,11.63
2017-11-04T02:52:31.822Z,11.23
2017-11-04T02:55:00.262Z,10.97
2017-11-04T02:57:28.618Z,11.33
2017-11-04T02:59:57.744Z,10.53
2017-11-04T03:02:26.126Z,10.77
2017-11-04T03:04:54.482Z,11.87
2017-11-04T03:07:23.421Z,10.20
2017-11-04T03:09:51.802Z,10.53
2017-11-04T03:12:20.157Z,9.60
2017-11-04T03:14:48.522Z,10.40
2017-11-04T03:17:16.890Z,10.10
2017-11-04T03:19:44.551Z,9.73
2017-11-04T03:22:12.399Z,9.20
2017-11-04T03:24:41.520Z,9.50
2017-11-04T03:27:09.871Z,9.40
2017-11-04T03:29:39.011Z,9.27
2017-11-04T03:32:07.406Z,8.70
2017-11-04T03:34:35.760Z,8.27
2017-11-04T03:37:05.136Z,9.37
2017-11-04T03:39:33.507Z,8.87
2017-11-04T03:42:03.247Z,8.77
2017-11-04T03:44:31.642Z,8.27
2017-11-04T03:47:01.986Z,8.83
2017-11-04T03:49:30.341Z,8.57
2017-11-04T03:51:58.732Z,7.80
2017-11-04T03:54:27.082Z,8.50
2017-11-04T03:56:56.422Z,9.97
2017-11-04T03:59:24.823Z,9.90
2017-11-04T04:01:53.950Z,9.43
2017-11-04T04:04:22.557Z,10.20
2017-11-04T04:06:51.912Z,9.83
2017-11-04T04:09:20.266Z,10.00
2017-11-04T04:11:48.630Z,8.87
2017-11-04T04:14:17.003Z,9.60
2017-11-04T04:16:45.383Z,9.50
2017-11-04T04:19:13.785Z,10.40
2017-11-04T04:21:42.397Z,9.23
2017-11-04T04:24:10.746Z,9.63
2017-11-04T04:26:40.892Z,10.13
2017-11-04T04:29:09.242Z,11.40
2017-11-04T04:31:38.364Z,10.00
2017-11-04T04:34:06.743Z,9.10
2017-11-04T04:36:34.907Z,11.53
2017-11-04T04:39:03.808Z,9.90
2017-11-04T04:41:32.007Z,10.43
2017-11-04T04:44:00.180Z,10.63
2017-11-04T04:46:28.346Z,11.17
2017-11-04T04:48:56.542Z,10.93
2017-11-04T04:51:24.890Z,10.90
2017-11-04T04:53:53.272Z,10.60
2017-11-04T04:56:21.679Z,10.40
2017-11-04T04:58:50.041Z,11.33
2017-11-04T05:01:18.401Z,12.63
2017-11-04T05:03:47.822Z,12.27
2017-11-04T05:06:16.174Z,12.70
2017-11-04T05:08:44.531Z,14.30
2017-11-04T05:11:12.898Z,13.80
2017-11-04T05:13:42.026Z,12.87
2017-11-04T05:16:11.396Z,13.43
2017-11-04T05:18:40.539Z,13.33
2017-11-04T05:21:08.898Z,13.23
2017-11-04T05:23:37.272Z,12.13
2017-11-04T05:26:05.670Z,12.60
2017-11-04T05:28:33.831Z,13.77
2017-11-04T05:31:02.192Z,13.07
2017-11-04T05:33:30.386Z,13.00
2017-11-04T05:35:58.551Z,12.70
2017-11-04T05:38:27.177Z,13.67
2017-11-04T05:40:55.571Z,15.60
2017-11-04T05:43:23.997Z,13.80
2017-11-04T05:45:52.358Z,14.33
2017-11-04T05:48:20.737Z,14.63
2017-11-04T05:50:48.900Z,14.33
2017-11-04T05:53:19.219Z,15.23
2017-11-04T05:55:47.387Z,15.27
2017-11-04T05:58:17.295Z,15.27
2017-11-04T06:00:45.742Z,16.13
2017-11-04T06:03:14.147Z,15.23
2017-11-04T06:05:43.079Z,15.97
2017-11-04T06:08:11.436Z,15.60
2017-11-04T06:10:39.823Z,15.67
2017-11-04T06:13:08.183Z,16.17
2017-11-04T06:15:37.300Z,15.23
2017-11-04T06:18:05.710Z,14.23
2017-11-04T06:20:34.075Z,15.00
2017-11-04T06:23:02.239Z,14.50
2017-11-04T06:25:31.739Z,14.57
2017-11-04T06:28:00.095Z,14.80
2017-11-04T06:30:28.450Z,15.43
2017-11-04T06:32:57.427Z,14.03
2017-11-04T06:35:25.594Z,14.03
2017-11-04T06:37:56.126Z,13.87
2017-11-04T06:40:24.498Z,16.50
2017-11-04T06:42:52.911Z,20.10
2017-11-04T06:45:22.034Z,16.27
2017-11-04T06:47:50.390Z,15.23
2017-11-04T06:50:18.767Z,15.20
2017-11-04T06:52:47.891Z,14.93
2017-11-04T06:55:16.274Z,16.37
2017-11-04T06:57:44.657Z,15.10
2017-11-04T07:00:14.234Z,14.80
2017-11-04T07:02:44.450Z,15.53
2017-11-04T07:05:12.805Z,14.17
2017-11-04T07:07:42.109Z,13.40
2017-11-04T07:10:11.262Z,13.43
2017-11-04T07:12:40.519Z,12.67
2017-11-04T07:15:09.640Z,13.13
2017-11-04T07:17:38.579Z,13.40
2017-11-04T07:20:06.943Z,12.67
2017-11-04T07:22:35.298Z,15.63
2017-11-04T07:25:03.356Z,13.90
2017-11-04T07:27:31.706Z,14.10
2017-11-04T07:30:00.826Z,14.60
2017-11-04T07:32:29.228Z,15.03
2017-11-04T07:34:57.583Z,13.93
2017-11-04T07:37:25.956Z,14.43
2017-11-04T07:39:54.148Z,14.50
2017-11-04T07:42:23.527Z,15.53
2017-11-04T07:44:51.715Z,14.63
2017-11-04T07:47:19.911Z,13.37
2017-11-04T07:49:48.283Z,13.20
2017-11-04T07:52:17.742Z,13.17
2017-11-04T07:54:45.410Z,13.07
2017-11-04T07:57:13.787Z,12.90
2017-11-04T07:59:42.407Z,13.63
2017-11-04T08:02:10.763Z,15.07
2017-11-04T08:04:39.136Z,13.13
2017-11-04T08:07:07.491Z,13.53
2017-11-04T08:09:36.613Z,13.63
2017-11-04T08:12:06.902Z,14.70
2017-11-04T08:14:36.035Z,14.27
2017-11-04T08:17:04.394Z,13.83
2017-11-04T08:19:32.777Z,14.10
2017-11-04T08:22:01.135Z,13.57
2017-11-04T08:24:30.265Z,14.87
2017-11-04T08:26:59.727Z,15.77
2017-11-04T08:29:28.852Z,14.53
2017-11-04T08:31:57.214Z,14.83
2017-11-04T08:34:26.350Z,14.80
2017-11-04T08:36:56.554Z,15.40
2017-11-04T08:39:24.937Z,15.37
2017-11-04T08:41:54.490Z,15.97
2017-11-04T08:44:22.660Z,16.40
2017-11-04T08:46:51.837Z,15.67
2017-11-04T08:49:20.007Z,15.13
2017-11-04T08:51:51.458Z,14.37
2017-11-04T08:54:19.631Z,15.40
2017-11-04T08:56:48.981Z,14.43
2017-11-04T08:59:17.338Z,14.13
2017-11-04T09:01:45.734Z,16.27
2017-11-04T09:04:14.898Z,14.20
2017-11-04T09:06:43.299Z,16.03
2017-11-04T09:09:11.914Z,15.00
2017-11-04T09:11:41.039Z,15.70
2017-11-04T09:14:09.424Z,13.80
2017-11-04T09:16:37.782Z,14.33
2017-11-04T09:19:06.137Z,15.57
2017-11-04T09:21:35.278Z,14.53
2017-11-04T09:24:03.641Z,14.60
2017-11-04T09:26:32.798Z,14.53
2017-11-04T09:29:01.164Z,15.13
2017-11-04T09:31:29.519Z,19.57
2017-11-04T09:33:57.903Z,17.60
2017-11-04T09:36:26.266Z,16.20
2017-11-04T09:38:54.655Z,16.60
2017-11-04T09:41:23.012Z,15.20
2017-11-04T09:43:52.488Z,15.30
2017-11-04T09:46:20.884Z,15.30
2017-11-04T09:48:50.019Z,14.07
2017-11-04T09:51:18.391Z,15.50
2017-11-04T09:53:46.772Z,15.33
2017-11-04T09:56:15.123Z,15.57
2017-11-04T09:58:43.507Z,15.37
2017-11-04T10:01:12.879Z,14.93
2017-11-04T10:03:42.019Z,15.30
2017-11-04T10:06:10.376Z,14.97
2017-11-04T10:08:38.767Z,14.90
2017-11-04T10:11:07.170Z,15.50
2017-11-04T10:13:35.571Z,15.47
2017-11-04T10:16:03.577Z,14.90
2017-11-04T10:18:31.942Z,15.03
2017-11-04T10:21:00.785Z,15.07
2017-11-04T10:23:29.179Z,15.90
2017-11-04T10:25:57.795Z,16.20
2017-11-04T10:28:26.923Z,15.73
2017-11-04T10:30:55.343Z,16.73
2017-11-04T10:33:23.351Z,16.93
2017-11-04T10:35:51.708Z,16.37
2017-11-04T10:38:20.103Z,16.10
2017-11-04T10:40:48.454Z,15.97
2017-11-04T10:43:17.882Z,16.57
2017-11-04T10:45:46.266Z,17.03
2017-11-04T10:48:15.632Z,16.10
2017-11-04T10:50:43.987Z,15.50
2017-11-04T10:53:12.391Z,16.07
2017-11-04T10:55:40.769Z,16.27
2017-11-04T10:58:09.131Z,16.77
2017-11-04T11:00:37.510Z,16.97
2017-11-04T11:03:05.871Z,16.13
2017-11-04T11:05:34.271Z,16.50
2017-11-04T11:08:02.622Z,16.57
2017-11-04T11:10:30.990Z,17.00
2017-11-04T11:12:59.379Z,17.83
2017-11-04T11:15:27.739Z,17.40
2017-11-04T11:17:57.015Z,16.47
2017-11-04T11:20:26.163Z,17.33
2017-11-04T11:22:55.599Z,17.93
2017-11-04T11:25:24.729Z,17.87
2017-11-04T11:27:53.092Z,18.07
2017-11-04T11:30:21.491Z,18.33
2017-11-04T11:32:50.799Z,18.73
2017-11-04T11:35:19.156Z,17.77
2017-11-04T11:37:48.577Z,19.20
2017-11-04T11:40:17.731Z,18.20
2017-11-04T11:42:46.858Z,17.67
2017-11-04T11:45:15.479Z,17.70
2017-11-04T11:47:44.933Z,17.67
2017-11-04T11:50:13.290Z,18.40
2017-11-04T11:52:42.418Z,17.97
2017-11-04T11:55:10.810Z,18.93
2017-11-04T11:57:39.934Z,19.00
2017-11-04T12:00:08.294Z,18.70
2017-11-04T12:02:37.434Z,19.60
2017-11-04T12:05:06.568Z,20.70
2017-11-04T12:07:34.954Z,18.37
2017-11-04T12:10:03.334Z,18.60
2017-11-04T12:12:31.694Z,18.43
2017-11-04T12:15:00.119Z,17.03
2017-11-04T12:17:29.479Z,18.93
2017-11-04T12:19:57.839Z,17.90
2017-11-04T12:22:27.233Z,17.67
2017-11-04T12:24:55.239Z,18.07
2017-11-04T12:27:23.599Z,18.47
2017-11-04T12:29:51.999Z,18.23
2017-11-04T12:32:21.331Z,18.73
2017-11-04T12:34:49.690Z,18.30
2017-11-04T12:37:19.044Z,18.50
2017-11-04T12:39:47.402Z,17.77
2017-11-04T12:42:16.530Z,16.80
2017-11-04T12:44:44.922Z,16.57
2017-11-04T12:47:13.286Z,16.97
2017-11-04T12:49:41.643Z,16.47
2017-11-04T12:52:11.034Z,16.03
2017-11-04T12:54:40.195Z,15.03
2017-11-04T12:57:08.550Z,14.03
2017-11-04T12:59:36.920Z,14.57
2017-11-04T13:02:05.563Z,13.13
2017-11-04T13:04:34.688Z,11.93
2017-11-04T13:12:52.030Z,12.63
2017-11-04T13:15:20.394Z,11.17
2017-11-04T13:17:49.520Z,11.37
2017-11-04T13:20:17.895Z,11.50
2017-11-04T13:22:46.280Z,10.87
2017-11-04T13:25:14.670Z,10.93
2017-11-04T13:27:43.032Z,10.53
2017-11-04T13:30:11.038Z,10.30
2017-11-04T13:32:39.415Z,9.83
2017-11-04T13:35:07.879Z,10.90
2017-11-04T13:37:36.269Z,10.73
2017-11-04T13:40:05.394Z,9.77
2017-11-04T13:42:33.758Z,9.47
2017-11-04T13:45:02.151Z,9.73
2017-11-04T13:47:31.439Z,10.00
2017-11-04T13:49:59.795Z,9.67
2017-11-04T13:55:21.518Z,10.40
2017-11-04T13:57:49.906Z,10.07
2017-11-04T14:00:18.271Z,10.60
2017-11-04T14:02:46.629Z,10.53
2017-11-04T14:05:15.004Z,10.90
2017-11-04T14:07:43.382Z,10.17
2017-11-04T14:10:11.737Z,10.77
2017-11-04T14:12:40.861Z,11.70
2017-11-04T14:15:09.265Z,11.17
2017-11-04T14:17:37.622Z,10.57
2017-11-04T14:20:09.435Z,12.30
2017-11-04T14:22:40.830Z,10.80
2017-11-04T14:25:09.239Z,10.80
2017-11-04T14:27:37.609Z,11.20
2017-11-04T14:30:05.985Z,11.77
2017-11-04T14:32:34.366Z,11.90
2017-11-04T14:35:02.734Z,11.23
2017-11-04T14:37:31.102Z,11.60
2017-11-04T14:39:59.734Z,10.67
2017-11-04T14:42:28.094Z,11.43
2017-11-04T14:44:55.799Z,11.00
2017-11-04T14:47:24.922Z,13.30
2017-11-04T14:49:53.101Z,15.20
2017-11-04T14:52:21.484Z,16.10
2017-11-04T14:54:49.846Z,16.30
2017-11-04T14:57:18.494Z,15.30
2017-11-04T14:59:46.871Z,17.00
2017-11-04T15:02:15.231Z,15.07
2017-11-04T15:04:44.573Z,16.53
2017-11-04T15:07:13.691Z,16.27
2017-11-04T15:09:42.074Z,16.00
2017-11-04T15:12:10.432Z,16.00
2017-11-04T15:14:38.973Z,16.23
2017-11-04T15:17:07.342Z,16.07
2017-11-04T15:19:37.862Z,14.87
2017-11-04T15:22:06.242Z,15.77
2017-11-04T15:24:34.604Z,15.50
2017-11-04T15:27:02.999Z,15.80
2017-11-04T15:29:31.354Z,15.60
2017-11-04T15:31:59.710Z,15.53
2017-11-04T15:34:28.103Z,15.97
2017-11-04T15:36:56.114Z,16.40
2017-11-04T15:39:24.474Z,15.10
2017-11-04T15:41:52.871Z,16.80
2017-11-04T15:44:21.232Z,15.53
2017-11-04T15:46:49.594Z,16.00
2017-11-04T15:49:18.102Z,16.10
2017-11-04T15:51:46.461Z,15.83
2017-11-04T15:54:14.832Z,16.50
2017-11-04T15:56:43.213Z,15.27
2017-11-04T15:59:11.600Z,17.27
2017-11-04T16:01:39.959Z,20.43
2017-11-04T16:04:08.139Z,17.10
2017-11-04T16:06:36.514Z,17.57
2017-11-04T16:09:04.182Z,16.00
2017-11-04T16:11:32.562Z,15.93
2017-11-04T16:14:01.936Z,16.43
2017-11-04T16:16:30.299Z,16.20
2017-11-04T16:19:00.395Z,15.50
2017-11-04T16:21:28.785Z,16.17
2017-11-04T16:23:57.907Z,15.57
2017-11-04T16:26:26.270Z,17.23
2017-11-04T16:28:55.418Z,16.23
2017-11-04T16:31:23.780Z,16.73
2017-11-04T16:33:53.161Z,15.50
2017-11-04T16:36:21.515Z,19.10
2017-11-04T16:38:51.621Z,18.57
2017-11-04T16:41:20.022Z,17.13
2017-11-04T16:43:51.143Z,16.73
2017-11-04T16:46:19.786Z,16.33
2017-11-04T16:48:48.190Z,15.63
2017-11-04T16:51:16.551Z,16.93
2017-11-04T16:53:44.919Z,15.23
2017-11-04T16:56:13.310Z,18.57
2017-11-04T16:58:41.686Z,47.57
2017-11-04T17:01:10.046Z,41.40
2017-11-04T17:03:39.430Z,19.17
2017-11-04T17:06:07.789Z,17.70
2017-11-04T17:08:36.913Z,18.37
2017-11-04T17:11:05.306Z,16.50
2017-11-04T17:13:34.748Z,15.73
2017-11-04T17:16:03.139Z,15.20
2017-11-04T17:18:33.240Z,14.90
2017-11-04T17:21:01.599Z,15.93
2017-11-04T17:23:31.498Z,14.37
2017-11-04T17:25:59.853Z,15.47
2017-11-04T17:28:28.217Z,13.40
2017-11-04T17:30:56.730Z,15.13
2017-11-04T17:33:26.064Z,13.83
2017-11-04T17:35:54.420Z,13.70
2017-11-04T17:38:23.755Z,13.80
2017-11-04T17:40:52.883Z,16.07
2017-11-04T17:43:22.254Z,15.13
2017-11-04T17:45:51.391Z,14.73
2017-11-04T17:48:20.827Z,13.67
2017-11-04T17:50:49.178Z,14.77
2017-11-04T17:53:17.538Z,14.27
2017-11-04T17:55:45.919Z,15.13
2017-11-04T17:58:14.282Z,15.00
2017-11-04T18:00:43.886Z,15.13
2017-11-04T18:03:12.242Z,14.90
2017-11-04T18:05:41.533Z,15.73
2017-11-04T18:08:10.652Z,14.90
2017-11-04T18:10:39.011Z,15.90
2017-11-04T18:13:08.158Z,15.50
2017-11-04T18:15:36.521Z,14.60
2017-11-04T18:18:04.545Z,14.27
2017-11-04T18:20:33.679Z,13.63
2017-11-04T18:23:02.078Z,13.30
2017-11-04T18:25:30.457Z,14.17
2017-11-04T18:27:59.885Z,13.73
2017-11-04T18:30:28.265Z,14.53
2017-11-04T18:32:56.614Z,13.33
2017-11-04T18:35:26.998Z,12.10
2017-11-04T18:37:55.357Z,12.87
2017-11-04T18:40:24.486Z,12.00
2017-11-04T18:42:52.862Z,12.47
2017-11-04T18:45:21.222Z,13.43
2017-11-04T18:47:49.600Z,19.33
2017-11-04T18:50:18.877Z,14.77
2017-11-04T18:52:48.018Z,14.60
2017-11-04T18:55:16.411Z,13.20
2017-11-04T18:57:44.773Z,13.27
2017-11-04T19:00:13.131Z,12.47
2017-11-04T19:02:41.507Z,16.17
2017-11-04T19:05:09.863Z,18.67
2017-11-04T19:07:39.028Z,20.17
2017-11-04T19:10:07.387Z,29.07
2017-11-04T19:12:36.297Z,29.77
2017-11-04T19:15:04.802Z,37.53
2017-11-04T19:17:33.958Z,19.17
2017-11-04T19:20:03.335Z,22.03
2017-11-04T19:22:32.725Z,19.73
2017-11-04T19:25:00.739Z,18.47
2017-11-04T19:27:29.103Z,31.50
2017-11-04T19:29:57.498Z,40.93
2017-11-04T19:32:25.858Z,19.43
2017-11-04T19:34:54.218Z,16.63
2017-11-04T19:37:22.603Z,23.53
2017-11-04T19:39:51.011Z,21.27
2017-11-04T19:42:19.377Z,22.30
2017-11-04T19:44:47.760Z,21.93
2017-11-04T19:47:16.123Z,23.40
2017-11-04T19:49:44.481Z,23.53
2017-11-04T19:52:12.866Z,25.83
2017-11-04T19:54:41.227Z,27.30
2017-11-04T19:57:09.607Z,26.77
2017-11-04T19:59:37.967Z,28.57
2017-11-04T20:02:06.361Z,34.07
2017-11-04T20:04:35.515Z,32.83
2017-11-04T20:07:04.189Z,25.80
2017-11-04T20:09:32.546Z,20.80
2017-11-04T20:12:00.947Z,18.27
2017-11-04T20:14:29.330Z,15.10
2017-11-04T20:16:59.533Z,14.33
2017-11-04T20:19:27.914Z,11.30
2017-11-04T20:21:56.274Z,11.30
2017-11-04T20:24:25.615Z,14.47
2017-11-04T20:26:54.768Z,14.47
2017-11-04T20:29:24.089Z,11.83
2017-11-04T20:31:52.492Z,12.43
2017-11-04T20:34:21.628Z,11.57
2017-11-04T20:36:51.015Z,10.10
2017-11-04T20:39:19.420Z,9.97
2017-11-04T20:41:47.797Z,9.30
2017-11-04T20:44:16.167Z,8.80
2017-11-04T20:46:44.561Z,9.20
2017-11-04T20:49:13.692Z,8.70
2017-11-04T20:51:42.310Z,8.60
2017-11-04T20:54:11.803Z,8.73
2017-11-04T20:56:40.155Z,8.87
2017-11-04T20:59:11.256Z,7.70
2017-11-04T21:01:39.618Z,7.83
2017-11-04T21:04:08.979Z,8.10
2017-11-04T21:06:37.351Z,9.23
2017-11-04T21:09:06.475Z,7.60
2017-11-04T21:11:34.877Z,7.73
2017-11-04T21:14:03.231Z,7.30
2017-11-04T21:16:31.631Z,10.00
2017-11-04T21:19:00.951Z,8.40
2017-11-04T21:21:29.321Z,7.97
2017-11-04T21:23:58.782Z,8.67
2017-11-04T21:26:27.148Z,8.53
2017-11-04T21:28:57.907Z,9.93
2017-11-04T21:31:26.293Z,10.60
2017-11-04T21:33:54.664Z,9.97
2017-11-04T21:36:23.059Z,13.37
2017-11-04T21:38:51.431Z,10.47
2017-11-04T21:41:19.791Z,10.10
2017-11-04T21:43:48.274Z,11.03
2017-11-04T21:46:16.630Z,9.00
2017-11-04T21:48:45.925Z,10.70
2017-11-04T21:51:14.573Z,8.13
2017-11-04T21:53:44.002Z,9.33
2017-11-04T21:56:12.363Z,9.50
2017-11-04T21:58:41.492Z,10.07
2017-11-04T22:01:09.911Z,9.57
2017-11-04T22:03:38.265Z,9.13
2017-11-04T22:06:06.631Z,11.90
2017-11-04T22:08:35.930Z,11.60
2017-11-04T22:11:04.285Z,11.37
2017-11-04T22:13:32.683Z,13.00
2017-11-04T22:16:01.039Z,11.23
2017-11-04T22:18:29.394Z,13.63
2017-11-04T22:20:58.551Z,12.97
2017-11-04T22:23:26.963Z,13.17
2017-11-04T22:25:55.359Z,15.33
2017-11-04T22:28:24.480Z,13.50
2017-11-04T22:30:52.830Z,12.60
2017-11-04T22:33:22.342Z,11.30
2017-11-04T22:35:50.696Z,11.10
2017-11-04T22:38:19.819Z,12.90
2017-11-04T22:40:48.195Z,10.53
2017-11-04T22:43:16.550Z,10.93
2017-11-04T22:45:45.717Z,11.53
2017-11-04T22:48:16.047Z,11.43
2017-11-04T22:50:44.411Z,13.60
2017-11-04T22:53:14.112Z,17.70
2017-11-04T22:55:42.467Z,16.00
2017-11-04T22:58:10.887Z,16.60
2017-11-04T23:00:39.267Z,14.43
2017-11-04T23:03:07.623Z,14.53
2017-11-04T23:05:36.794Z,14.73
2017-11-04T23:08:05.147Z,14.13
2017-11-04T23:10:33.502Z,13.90
2017-11-04T23:13:01.883Z,13.43
2017-11-04T23:15:31.009Z,13.33
2017-11-04T23:17:59.357Z,13.00
2017-11-04T23:20:28.498Z,12.07
2017-11-04T23:22:58.861Z,11.93
2017-11-04T23:25:27.371Z,11.00
2017-11-04T23:27:57.470Z,11.67
2017-11-04T23:30:27.033Z,11.73
2017-11-04T23:32:55.498Z,10.60
2017-11-04T23:35:24.361Z,11.93
2017-11-04T23:37:54.457Z,11.60
2017-11-04T23:40:22.831Z,11.57
2017-11-04T23:42:51.291Z,10.50
2017-11-04T23:45:19.786Z,10.50
2017-11-04T23:47:48.142Z,10.77
2017-11-04T23:50:16.502Z,10.20
2017-11-04T23:52:45.932Z,9.60
2017-11-04T23:55:14.281Z,9.67
2017-11-04T23:57:42.634Z,10.40
